createdAt,value
2019-04-04T00:04:49.065Z,9.96
2019-04-04T00:09:53.177Z,10.01
2019-04-04T00:14:57.229Z,9.94
2019-04-04T00:20:03.058Z,9.77
2019-04-04T00:25:09.604Z,9.71
2019-04-04T00:30:12.899Z,9.73
2019-04-04T00:35:16.961Z,9.67
2019-04-04T00:40:21.014Z,9.68
2019-04-04T00:45:25.131Z,9.64
2019-04-04T00:50:29.469Z,9.83
2019-04-04T00:55:33.843Z,9.70
2019-04-04T01:00:38.074Z,9.58
2019-04-04T01:05:42.149Z,9.43
2019-04-04T01:10:49.536Z,9.31
2019-04-04T01:15:52.185Z,9.35
2019-04-04T01:20:57.098Z,9.34
2019-04-04T01:26:01.328Z,9.24
2019-04-04T01:31:06.898Z,9.10
2019-04-04T01:36:11.360Z,8.95
2019-04-04T01:41:15.471Z,8.81
2019-04-04T01:46:19.543Z,8.72
2019-04-04T01:51:25.509Z,8.75
2019-04-04T01:56:30.134Z,8.90
2019-04-04T02:01:34.206Z,8.67
2019-04-04T02:06:38.256Z,8.59
2019-04-04T02:11:42.271Z,8.40
2019-04-04T02:16:50.959Z,8.71
2019-04-04T02:21:52.041Z,8.20
2019-04-04T02:26:56.095Z,8.24
2019-04-04T02:32:00.222Z,8.24
2019-04-04T02:37:04.339Z,8.31
2019-04-04T02:42:08.363Z,8.32
2019-04-04T02:47:16.799Z,8.40
2019-04-04T02:52:18.227Z,8.33
2019-04-04T02:57:22.229Z,8.32
2019-04-04T03:02:26.313Z,8.19
2019-04-04T03:07:31.197Z,7.92
2019-04-04T03:12:35.307Z,7.87
2019-04-04T03:17:39.375Z,7.89
2019-04-04T03:22:43.463Z,7.80
2019-04-04T03:27:47.563Z,7.67
2019-04-04T03:32:54.363Z,7.78
2019-04-04T03:37:57.422Z,7.74
2019-04-04T03:43:01.552Z,7.66
2019-04-04T03:48:05.628Z,7.60
2019-04-04T03:53:09.648Z,7.47
2019-04-04T03:58:13.938Z,7.41
2019-04-04T04:03:22.208Z,7.34
2019-04-04T04:08:23.750Z,7.32
2019-04-04T04:13:28.579Z,7.20
2019-04-04T04:18:32.602Z,7.16
2019-04-04T04:23:36.668Z,7.10
2019-04-04T04:28:40.715Z,6.97
2019-04-04T04:33:45.067Z,6.94
2019-04-04T04:38:49.443Z,6.91
2019-04-04T04:43:54.787Z,6.90
2019-04-04T04:49:00.652Z,6.79
2019-04-04T04:54:05.654Z,6.82
2019-04-04T04:59:11.063Z,6.86
2019-04-04T05:04:15.825Z,6.95
2019-04-04T05:09:19.955Z,7.12
2019-04-04T05:14:24.555Z,7.28
2019-04-04T05:19:28.679Z,7.33
2019-04-04T05:24:32.892Z,7.45
2019-04-04T05:29:37.063Z,7.73
2019-04-04T05:34:41.607Z,7.92
2019-04-04T05:39:46.941Z,9.60
2019-04-04T05:44:51.254Z,12.16
2019-04-04T05:49:55.665Z,14.57
2019-04-04T05:54:59.736Z,15.39
2019-04-04T06:00:05.182Z,16.31
2019-04-04T06:05:09.927Z,17.67
2019-04-04T06:10:14.052Z,18.62
2019-04-04T06:15:18.163Z,16.25
2019-04-04T06:20:22.441Z,13.61
2019-04-04T06:25:27.992Z,12.35
2019-04-04T06:30:42.511Z,11.79
2019-04-04T06:35:39.834Z,11.69
2019-04-04T06:40:43.687Z,11.66
2019-04-04T06:45:47.777Z,11.79
2019-04-04T06:50:52.071Z,11.90
2019-04-04T06:55:56.132Z,12.08
2019-04-04T07:01:00.361Z,12.36
2019-04-04T07:06:04.562Z,12.35
2019-04-04T07:11:21.104Z,12.50
2019-04-04T07:16:14.554Z,12.60
2019-04-04T07:21:20.199Z,12.91
2019-04-04T07:26:25.117Z,13.21
2019-04-04T07:31:33.262Z,13.25
2019-04-04T07:36:35.105Z,13.21
2019-04-04T07:41:40.800Z,13.28
2019-04-04T07:46:45.730Z,13.35
2019-04-04T07:51:55.676Z,13.50
2019-04-04T07:57:00.830Z,13.66
2019-04-04T08:02:05.016Z,13.81
2019-04-04T08:07:09.153Z,13.96
2019-04-04T08:12:13.200Z,14.19
2019-04-04T08:17:18.861Z,14.24
2019-04-04T08:22:23.368Z,14.44
2019-04-04T08:27:27.374Z,14.33
2019-04-04T08:32:31.413Z,14.52
2019-04-04T08:37:35.460Z,14.83
2019-04-04T08:42:39.845Z,14.77
2019-04-04T08:47:43.924Z,15.17
2019-04-04T08:52:47.958Z,15.48
2019-04-04T08:57:52.024Z,15.32
2019-04-04T09:02:56.095Z,15.23
2019-04-04T09:08:00.138Z,15.39
2019-04-04T09:13:04.551Z,15.50
2019-04-04T09:18:08.951Z,15.54
2019-04-04T09:23:13.034Z,15.79
2019-04-04T09:28:17.114Z,15.98
2019-04-04T09:33:21.197Z,16.77
2019-04-04T09:38:25.173Z,19.28
2019-04-04T09:43:29.239Z,20.67
2019-04-04T09:48:33.307Z,20.34
2019-04-04T09:53:52.309Z,20.50
2019-04-04T09:58:43.422Z,21.18
2019-04-04T10:03:47.580Z,20.87
2019-04-04T10:08:51.613Z,22.44
2019-04-04T10:13:55.646Z,22.07
2019-04-04T10:18:59.710Z,23.21
2019-04-04T10:24:03.958Z,22.45
2019-04-04T10:29:08.008Z,21.55
2019-04-04T10:34:12.120Z,22.26
2019-04-04T10:39:28.383Z,22.52
2019-04-04T10:44:21.927Z,22.33
2019-04-04T10:49:26.072Z,22.04
2019-04-04T10:54:30.213Z,22.35
2019-04-04T10:59:34.355Z,21.60
2019-04-04T11:04:38.442Z,21.79
2019-04-04T11:09:42.565Z,21.82
2019-04-04T11:14:46.649Z,22.03
2019-04-04T11:19:50.727Z,21.93
2019-04-04T11:24:54.858Z,22.09
2019-04-04T11:29:58.930Z,21.60
2019-04-04T11:35:03.223Z,20.90
2019-04-04T11:40:07.384Z,21.51
2019-04-04T11:45:11.565Z,21.00
2019-04-04T11:50:15.736Z,20.95
2019-04-04T11:55:19.825Z,20.85
2019-04-04T12:00:23.906Z,21.03
2019-04-04T12:05:28.005Z,21.24
2019-04-04T12:10:32.082Z,21.00
2019-04-04T12:15:36.203Z,21.20
2019-04-04T12:20:43.153Z,21.50
2019-04-04T12:25:46.110Z,21.54
2019-04-04T12:30:50.156Z,21.89
2019-04-04T12:35:54.278Z,21.60
2019-04-04T12:40:58.326Z,22.10
2019-04-04T12:46:02.411Z,22.20
2019-04-04T12:51:06.521Z,22.01
2019-04-04T12:56:10.568Z,21.92
2019-04-04T13:01:14.624Z,22.07
2019-04-04T13:06:18.741Z,21.93
2019-04-04T13:11:22.851Z,22.06
2019-04-04T13:16:26.884Z,22.00
2019-04-04T13:21:30.971Z,21.73
2019-04-04T13:26:35.139Z,21.76
2019-04-04T13:31:39.212Z,21.78
2019-04-04T13:36:43.256Z,21.87
2019-04-04T13:41:50.389Z,21.67
2019-04-04T13:46:54.587Z,21.00
2019-04-04T13:51:58.633Z,21.97
2019-04-04T13:57:02.683Z,22.59
2019-04-04T14:02:06.924Z,22.51
2019-04-04T14:07:11.024Z,22.62
2019-04-04T14:12:15.428Z,22.44
2019-04-04T14:17:19.529Z,22.91
2019-04-04T14:22:23.655Z,23.07
2019-04-04T14:27:27.831Z,22.90
2019-04-04T14:32:31.830Z,23.05
2019-04-04T14:37:35.873Z,23.63
2019-04-04T14:42:39.938Z,23.94
2019-04-04T14:47:43.990Z,23.59
2019-04-04T14:52:49.243Z,23.87
2019-04-04T14:57:53.764Z,23.34
2019-04-04T15:02:57.945Z,22.07
2019-04-04T15:08:01.953Z,21.67
2019-04-04T15:13:06.242Z,21.30
2019-04-04T15:18:10.276Z,21.54
2019-04-04T15:23:14.331Z,22.04
2019-04-04T15:28:18.395Z,22.26
2019-04-04T15:33:22.434Z,21.84
2019-04-04T15:38:26.496Z,21.38
2019-04-04T15:43:30.577Z,21.19
2019-04-04T15:48:34.687Z,20.78
2019-04-04T15:53:38.720Z,21.25
2019-04-04T15:58:42.756Z,21.54
2019-04-04T16:03:47.066Z,21.43
2019-04-04T16:08:51.341Z,21.53
2019-04-04T16:13:55.376Z,21.22
2019-04-04T16:18:59.487Z,20.99
2019-04-04T16:24:03.541Z,21.16
2019-04-04T16:29:07.560Z,20.86
2019-04-04T16:34:11.628Z,20.53
2019-04-04T16:39:15.759Z,20.19
2019-04-04T16:44:19.833Z,19.98
2019-04-04T16:49:24.195Z,19.72
2019-04-04T16:54:28.289Z,19.42
2019-04-04T16:59:32.685Z,19.13
2019-04-04T17:04:36.796Z,19.08
2019-04-04T17:09:41.272Z,18.72
2019-04-04T17:14:45.449Z,18.50
2019-04-04T17:19:49.673Z,18.29
2019-04-04T17:24:57.760Z,18.06
2019-04-04T17:30:02.532Z,17.80
2019-04-04T17:35:07.450Z,17.57
2019-04-04T17:40:12.056Z,17.25
2019-04-04T17:45:18.571Z,16.90
2019-04-04T17:50:24.320Z,16.70
2019-04-04T17:55:30.415Z,16.53
2019-04-04T18:00:35.104Z,16.34
2019-04-04T18:05:55.479Z,16.14
2019-04-04T18:10:59.870Z,15.80
2019-04-04T18:16:04.272Z,15.48
2019-04-04T18:21:08.558Z,15.23
2019-04-04T18:26:15.829Z,15.14
2019-04-04T18:31:22.905Z,15.00
2019-04-04T18:36:29.209Z,14.80
2019-04-04T18:41:36.156Z,14.52
2019-04-04T18:46:41.471Z,14.24
2019-04-04T18:51:49.140Z,14.01
2019-04-04T18:56:54.926Z,13.93
2019-04-04T19:02:06.749Z,13.69
2019-04-04T19:07:18.190Z,13.54
2019-04-04T19:12:33.503Z,13.40
2019-04-04T19:17:42.003Z,13.25
2019-04-04T19:22:47.508Z,13.14
2019-04-04T19:27:54.036Z,13.07
2019-04-04T19:32:58.391Z,13.09
2019-04-04T19:38:04.461Z,13.19
2019-04-04T19:43:17.956Z,13.25
2019-04-04T19:48:21.386Z,13.09
2019-04-04T19:53:28.452Z,12.96
2019-04-04T19:58:37.073Z,13.00
2019-04-04T20:03:42.017Z,13.12
2019-04-04T20:08:46.663Z,13.29
2019-04-04T20:13:51.215Z,13.29
2019-04-04T20:19:01.665Z,13.48
2019-04-04T20:24:11.966Z,13.36
2019-04-04T20:29:21.543Z,13.22
2019-04-04T20:34:29.501Z,13.00
2019-04-04T20:39:36.815Z,13.11
2019-04-04T20:44:43.427Z,13.16
2019-04-04T20:49:51.505Z,13.32
2019-04-04T20:54:57.304Z,13.36
2019-04-04T21:00:04.792Z,13.31
2019-04-04T21:05:09.502Z,13.06
2019-04-04T21:10:13.574Z,13.26
2019-04-04T21:15:17.637Z,12.99
2019-04-04T21:20:21.659Z,12.62
2019-04-04T21:25:25.801Z,12.75
2019-04-04T21:30:29.858Z,12.82
2019-04-04T21:35:33.890Z,12.82
2019-04-04T21:40:37.930Z,12.73
2019-04-04T21:45:41.956Z,12.92
2019-04-04T21:50:45.978Z,12.77
2019-04-04T21:55:50.246Z,12.57
2019-04-04T22:00:54.934Z,12.46
2019-04-04T22:05:59.347Z,12.38
2019-04-04T22:11:03.441Z,12.50
2019-04-04T22:16:07.555Z,12.48
2019-04-04T22:21:11.666Z,12.38
2019-04-04T22:26:17.085Z,12.39
2019-04-04T22:31:21.505Z,12.40
2019-04-04T22:36:25.583Z,12.37
2019-04-04T22:41:29.636Z,12.37
2019-04-04T22:46:33.999Z,12.01
2019-04-04T22:51:38.065Z,11.81
2019-04-04T22:56:42.149Z,11.71
2019-04-04T23:01:46.656Z,11.77
2019-04-04T23:06:50.736Z,11.61
2019-04-04T23:11:54.827Z,11.55
2019-04-04T23:16:58.895Z,11.51
2019-04-04T23:22:02.938Z,11.31
2019-04-04T23:27:07.023Z,11.22
2019-04-04T23:32:11.127Z,10.98
2019-04-04T23:37:15.254Z,10.72
2019-04-04T23:42:19.355Z,10.54
2019-04-04T23:47:23.433Z,10.44
2019-04-04T23:52:27.485Z,10.37
2019-04-04T23:57:31.875Z,10.22
